Time;durP1;ratioP1;P1;durP2;ratioP2;P2;SDS_P1;SDS_P2;PMS_P1;PMS_P2;Temp;Humidity;BMP_temperature;BMP_pressure;BME280_temperature;BME280_humidity;BME280_pressure;Samples;Min_cycle;Max_cycle;Signal;HPM_P1;HPM_P2
2023/04/11 04:31:51;;;;;;;8.13;2.47;;;10.80;73.90;;;;;;5264893;23;20139;-74
2023/04/11 04:34:20;;;;;;;11.13;2.00;;;10.80;74.00;;;;;;4937250;29;20038;-74
2023/04/11 04:36:47;;;;;;;9.68;3.25;;;10.80;73.80;;;;;;4925721;29;20091;-75
2023/04/11 04:39:18;;;;;;;7.03;2.33;;;10.80;74.00;;;;;;4916807;29;20028;-75
2023/04/11 04:41:57;;;;;;;12.95;2.10;;;10.70;74.50;;;;;;4918529;29;20061;-74
2023/04/11 04:44:26;;;;;;;5.53;2.05;;;10.80;74.00;;;;;;4918577;29;20036;-75
2023/04/11 04:46:53;;;;;;;7.57;2.15;;;10.80;73.80;;;;;;4918641;29;20451;-78
2023/04/11 04:49:18;;;;;;;9.95;2.05;;;10.80;73.70;;;;;;4917161;29;20518;-78
2023/04/11 04:51:44;;;;;;;5.97;1.73;;;10.80;73.90;;;;;;4927087;29;20399;-81
2023/04/11 04:54:10;;;;;;;12.73;2.47;;;10.80;73.60;;;;;;4932537;29;20024;-78
2023/04/11 04:56:35;;;;;;;10.25;1.80;;;10.80;73.70;;;;;;4917519;29;20028;-78
2023/04/11 04:59:01;;;;;;;10.20;1.48;;;10.80;73.60;;;;;;4918645;29;20028;-78
2023/04/11 05:01:26;;;;;;;5.55;1.73;;;10.80;73.80;;;;;;4925528;29;20070;-78
2023/04/11 05:03:58;;;;;;;10.88;2.75;;;10.80;73.90;;;;;;4946542;29;20103;-77
2023/04/11 05:06:32;;;;;;;7.15;1.70;;;10.80;74.00;;;;;;4923485;29;20066;-80
2023/04/11 05:09:00;;;;;;;11.25;2.00;;;10.80;74.00;;;;;;4943790;29;20028;-79
2023/04/11 05:11:27;;;;;;;10.50;1.95;;;10.70;74.00;;;;;;4931377;29;20043;-77
2023/04/11 05:13:54;;;;;;;13.25;2.53;;;10.70;74.30;;;;;;4937895;29;20079;-80
2023/04/11 05:16:20;;;;;;;6.68;2.03;;;10.70;74.00;;;;;;4924153;29;20032;-77
2023/04/11 05:18:46;;;;;;;7.28;2.40;;;10.80;74.00;;;;;;4927842;29;20142;-77
2023/04/11 05:21:12;;;;;;;13.70;2.67;;;10.70;74.00;;;;;;4945718;29;20110;-78
2023/04/11 05:23:38;;;;;;;7.22;1.70;;;10.70;73.90;;;;;;4938178;29;20028;-78
2023/04/11 05:26:05;;;;;;;12.13;2.03;;;10.70;73.80;;;;;;4916809;29;20130;-78
2023/04/11 05:28:31;;;;;;;11.52;2.22;;;10.70;74.10;;;;;;4916052;29;20031;-78
2023/04/11 05:30:56;;;;;;;13.85;2.15;;;10.70;73.80;;;;;;4919928;29;20051;-78
2023/04/11 05:33:23;;;;;;;9.98;2.08;;;10.70;74.00;;;;;;4920484;29;20114;-78
2023/04/11 05:35:52;;;;;;;9.95;1.95;;;10.60;73.90;;;;;;4939720;29;20110;-78
2023/04/11 05:38:19;;;;;;;7.97;1.55;;;10.60;74.10;;;;;;4937869;29;20038;-78
2023/04/11 05:40:44;;;;;;;5.68;2.00;;;10.60;74.10;;;;;;4940025;29;20127;-77
2023/04/11 05:43:13;;;;;;;9.63;2.60;;;10.70;74.20;;;;;;4923569;29;20058;-79
2023/04/11 05:45:46;;;;;;;9.80;2.22;;;10.70;74.10;;;;;;4932918;29;20083;-88
2023/04/11 05:48:15;;;;;;;7.95;2.50;;;10.70;73.90;;;;;;4933070;29;20024;-87
2023/04/11 05:50:41;;;;;;;8.30;1.83;;;10.70;74.00;;;;;;4922404;29;20495;-87
2023/04/11 05:53:07;;;;;;;11.20;2.20;;;10.70;74.00;;;;;;4939782;29;20024;-86
2023/04/11 05:55:33;;;;;;;8.88;2.15;;;10.70;74.10;;;;;;4940167;29;20031;-88
2023/04/11 05:57:59;;;;;;;7.10;2.25;;;10.60;74.20;;;;;;4922874;29;20024;-87
2023/04/11 06:00:27;;;;;;;5.43;2.33;;;10.70;74.30;;;;;;4934493;29;20059;-88
2023/04/11 06:02:53;;;;;;;10.00;2.63;;;10.70;74.20;;;;;;4939697;29;20507;-87
2023/04/11 06:05:20;;;;;;;3.33;1.70;;;10.80;74.20;;;;;;4934306;29;20142;-87
2023/04/11 06:07:46;;;;;;;15.10;2.47;;;10.80;74.30;;;;;;4937940;29;20431;-90
2023/04/11 06:10:12;;;;;;;5.60;1.80;;;10.80;74.40;;;;;;4940815;29;20070;-86
2023/04/11 06:12:38;;;;;;;12.13;2.22;;;10.80;74.40;;;;;;4940114;29;20027;-80
2023/04/11 06:15:05;;;;;;;10.55;2.95;;;10.90;74.40;;;;;;4921791;29;20495;-86
2023/04/11 06:17:30;;;;;;;7.82;2.13;;;10.90;74.40;;;;;;4937983;29;20019;-86
2023/04/11 06:19:57;;;;;;;11.27;2.17;;;11.00;74.40;;;;;;4939018;29;20098;-86
2023/04/11 06:22:22;;;;;;;11.75;2.22;;;11.10;74.40;;;;;;4919563;29;20454;-86
2023/04/11 06:24:48;;;;;;;6.82;2.17;;;11.20;74.30;;;;;;4919503;29;20032;-87
2023/04/11 06:27:14;;;;;;;10.27;2.35;;;11.20;74.20;;;;;;4919816;29;20526;-85
2023/04/11 06:29:42;;;;;;;12.15;2.55;;;11.30;74.20;;;;;;4930632;29;20031;-86
2023/04/11 06:32:10;;;;;;;8.52;1.90;;;11.40;74.00;;;;;;4919793;29;20099;-86
2023/04/11 06:34:37;;;;;;;8.07;2.08;;;11.40;74.10;;;;;;4939809;29;20459;-86
2023/04/11 06:37:02;;;;;;;16.35;2.45;;;11.40;74.30;;;;;;4939375;29;20030;-86
2023/04/11 06:39:28;;;;;;;8.80;1.92;;;11.50;74.30;;;;;;4936918;29;20487;-86
2023/04/11 06:41:53;;;;;;;12.90;2.97;;;11.50;74.20;;;;;;4938489;29;20042;-85
2023/04/11 06:44:19;;;;;;;9.57;2.25;;;11.50;74.40;;;;;;4938516;29;20040;-86
2023/04/11 06:46:45;;;;;;;13.27;2.60;;;11.50;74.20;;;;;;4916655;29;20028;-86
2023/04/11 06:49:10;;;;;;;9.73;2.60;;;11.50;74.60;;;;;;4935439;29;20514;-86
2023/04/11 06:51:36;;;;;;;9.52;2.60;;;11.50;74.60;;;;;;4933176;29;20510;-85
2023/04/11 06:54:02;;;;;;;13.18;2.42;;;11.60;74.30;;;;;;4921279;29;20036;-76
2023/04/11 06:56:28;;;;;;;6.10;1.70;;;11.60;74.60;;;;;;4922107;29;20498;-77
2023/04/11 06:58:54;;;;;;;12.70;2.70;;;11.70;74.50;;;;;;4936031;29;20027;-77
2023/04/11 07:01:24;;;;;;;10.63;2.45;;;11.70;74.80;;;;;;4921709;29;20487;-77
2023/04/11 07:03:51;;;;;;;10.50;2.30;;;11.70;74.40;;;;;;4939037;29;20513;-78
2023/04/11 07:06:18;;;;;;;8.82;2.67;;;11.80;74.40;;;;;;4935924;29;20499;-77
2023/04/11 07:08:44;;;;;;;11.77;2.63;;;11.90;74.30;;;;;;4919814;29;20046;-77
2023/04/11 07:11:10;;;;;;;9.50;2.80;;;11.90;74.30;;;;;;4932881;29;20522;-77
2023/04/11 07:13:36;;;;;;;11.02;3.28;;;12.00;74.60;;;;;;4919977;29;20074;-77
2023/04/11 07:16:02;;;;;;;8.45;2.35;;;12.10;74.10;;;;;;4919898;29;20075;-77
2023/04/11 07:18:29;;;;;;;10.05;2.50;;;12.20;74.60;;;;;;4919720;29;20550;-78
2023/04/11 07:20:55;;;;;;;12.07;2.42;;;12.20;74.00;;;;;;4925341;29;20086;-77
2023/04/11 07:23:20;;;;;;;8.55;2.47;;;12.30;73.70;;;;;;4928047;29;20123;-77
2023/04/11 07:25:46;;;;;;;8.85;2.08;;;12.60;73.50;;;;;;4919692;29;20042;-77
2023/04/11 07:28:12;;;;;;;12.27;2.65;;;12.70;73.40;;;;;;4902811;29;20692;-77
2023/04/11 07:30:37;;;;;;;9.57;1.85;;;12.90;73.00;;;;;;4912516;29;20427;-77
2023/04/11 07:33:03;;;;;;;11.85;2.17;;;12.90;72.60;;;;;;4938712;29;20052;-77
2023/04/11 07:35:30;;;;;;;12.55;2.05;;;13.00;72.50;;;;;;4938746;29;20495;-77
2023/04/11 07:37:57;;;;;;;8.52;2.03;;;13.00;72.60;;;;;;4936640;29;20087;-78
2023/04/11 07:40:23;;;;;;;8.73;1.95;;;13.10;72.90;;;;;;4921684;29;20034;-78
2023/04/11 07:42:48;;;;;;;14.57;2.20;;;13.10;72.50;;;;;;4917037;29;20114;-77
2023/04/11 07:45:14;;;;;;;12.30;2.33;;;13.30;72.40;;;;;;4919472;29;20063;-77
2023/04/11 07:47:40;;;;;;;12.38;2.28;;;13.40;71.80;;;;;;4919227;29;20511;-77
2023/04/11 07:50:06;;;;;;;11.95;2.28;;;13.60;71.10;;;;;;4919522;29;20103;-77
2023/04/11 07:52:31;;;;;;;14.05;3.65;;;13.80;70.80;;;;;;4919387;29;20040;-77
2023/04/11 07:54:57;;;;;;;15.45;2.30;;;14.10;70.00;;;;;;4919501;29;20027;-77
2023/04/11 07:57:23;;;;;;;17.60;2.90;;;14.20;69.50;;;;;;4918378;29;20518;-77
2023/04/11 07:59:49;;;;;;;18.15;2.67;;;14.50;68.90;;;;;;4918026;29;20139;-77
2023/04/11 08:02:14;;;;;;;12.30;2.67;;;15.50;66.80;;;;;;4928313;29;20031;-78
2023/04/11 08:04:40;;;;;;;11.98;1.98;;;16.60;62.30;;;;;;4938371;29;20115;-77
2023/04/11 08:07:06;;;;;;;12.05;2.85;;;17.50;60.80;;;;;;4937049;29;20059;-77
2023/04/11 08:09:32;;;;;;;7.80;2.47;;;17.90;58.40;;;;;;4938145;29;20059;-77
2023/04/11 08:11:58;;;;;;;11.93;2.35;;;18.60;57.10;;;;;;4949090;29;20061;-78
2023/04/11 08:14:23;;;;;;;14.68;2.20;;;19.30;55.00;;;;;;4957051;29;20023;-78
2023/04/11 08:16:49;;;;;;;7.90;1.70;;;19.70;53.60;;;;;;4940043;29;20130;-78
2023/04/11 08:19:16;;;;;;;9.63;2.47;;;19.90;53.20;;;;;;4945165;29;20031;-77
2023/04/11 08:21:42;;;;;;;11.73;2.75;;;19.60;52.70;;;;;;4919306;29;20090;-78
2023/04/11 08:24:08;;;;;;;15.30;2.13;;;18.80;54.50;;;;;;4918844;29;20040;-78
2023/04/11 08:26:34;;;;;;;8.40;1.92;;;18.00;56.30;;;;;;4922960;29;20040;-78
2023/04/11 08:29:00;;;;;;;6.60;2.30;;;17.30;58.20;;;;;;4938180;29;20028;-77
2023/04/11 08:31:27;;;;;;;10.32;1.80;;;16.90;59.40;;;;;;4920528;29;20119;-77
2023/04/11 08:33:53;;;;;;;15.00;2.20;;;16.60;60.60;;;;;;4926607;29;20035;-77
2023/04/11 08:36:18;;;;;;;15.68;2.10;;;16.20;61.30;;;;;;4919091;29;20032;-77
2023/04/11 08:38:44;;;;;;;15.65;2.60;;;16.00;61.60;;;;;;4919195;29;20024;-78
2023/04/11 08:41:10;;;;;;;9.98;1.85;;;15.90;62.40;;;;;;4916464;29;20042;-78
2023/04/11 08:43:40;;;;;;;8.68;1.70;;;16.20;61.50;;;;;;4915400;29;21153;-78
2023/04/11 08:46:07;;;;;;;10.68;2.25;;;16.50;60.80;;;;;;4936811;29;20036;-78
2023/04/11 08:48:33;;;;;;;12.63;2.40;;;16.60;60.20;;;;;;4925594;29;20036;-77
2023/04/11 08:50:58;;;;;;;6.78;1.98;;;16.60;60.50;;;;;;4922024;29;20036;-78
2023/04/11 08:53:25;;;;;;;5.90;1.73;;;16.60;60.50;;;;;;4920619;29;20399;-77
2023/04/11 08:55:51;;;;;;;16.27;2.55;;;16.30;60.20;;;;;;4918029;29;20055;-77
2023/04/11 08:58:18;;;;;;;18.33;2.20;;;16.20;61.60;;;;;;4905869;29;20107;-77
2023/04/11 09:00:44;;;;;;;13.95;2.45;;;16.10;61.20;;;;;;4923495;29;20028;-78
2023/04/11 09:03:11;;;;;;;10.63;1.45;;;16.00;61.90;;;;;;4923654;29;20071;-77
2023/04/11 09:05:43;;;;;;;16.75;1.95;;;15.90;62.60;;;;;;4922203;29;20043;-78
2023/04/11 09:08:16;;;;;;;13.07;2.20;;;15.80;62.40;;;;;;4929345;29;20042;-78
2023/04/11 09:10:45;;;;;;;15.18;2.10;;;15.70;62.90;;;;;;4945945;29;20031;-78
2023/04/11 09:13:19;;;;;;;13.07;2.30;;;15.60;63.50;;;;;;4934472;29;20036;-78
2023/04/11 09:15:44;;;;;;;16.35;2.58;;;15.50;64.00;;;;;;4921047;29;20032;-77
2023/04/11 09:18:10;;;;;;;11.40;1.88;;;15.50;64.40;;;;;;4922024;29;20417;-77
2023/04/11 09:20:35;;;;;;;12.23;2.05;;;15.30;64.40;;;;;;4921773;29;20032;-78
2023/04/11 09:23:01;;;;;;;15.18;2.60;;;15.30;64.30;;;;;;4922252;29;20036;-78
2023/04/11 09:25:27;;;;;;;12.38;2.20;;;15.40;64.40;;;;;;4920361;29;20039;-78
2023/04/11 09:28:07;;;;;;;13.50;2.60;;;15.40;64.80;;;;;;4926797;29;20028;-78
2023/04/11 09:30:34;;;;;;;12.95;2.10;;;15.40;65.00;;;;;;4927394;29;20059;-78
2023/04/11 09:33:21;;;;;;;11.85;2.30;;;15.60;64.70;;;;;;4923723;29;20506;-78
2023/04/11 09:35:48;;;;;;;8.70;2.28;;;15.80;65.00;;;;;;4940807;29;20144;-78
2023/04/11 09:38:25;;;;;;;7.32;1.98;;;15.80;64.80;;;;;;4928905;29;20384;-77
2023/04/11 09:40:52;;;;;;;8.85;2.00;;;15.80;64.80;;;;;;4920164;29;20483;-77
2023/04/11 09:43:17;;;;;;;11.15;1.98;;;15.80;64.70;;;;;;4921532;29;20032;-78
2023/04/11 09:45:44;;;;;;;11.43;2.65;;;15.60;64.50;;;;;;4920749;29;20040;-77
2023/04/11 09:48:10;;;;;;;13.68;2.35;;;15.60;65.00;;;;;;4921907;29;20024;-78
2023/04/11 09:50:37;;;;;;;7.47;1.80;;;15.60;64.60;;;;;;4921565;29;20032;-77
2023/04/11 09:53:07;;;;;;;11.73;2.28;;;15.60;64.50;;;;;;4921765;29;20036;-77
2023/04/11 09:55:33;;;;;;;11.63;1.90;;;15.50;65.00;;;;;;4920958;29;20025;-77
2023/04/11 09:57:59;;;;;;;8.77;2.28;;;15.40;64.80;;;;;;4921494;29;20083;-77
2023/04/11 10:00:29;;;;;;;9.20;1.83;;;15.40;65.20;;;;;;4912431;29;20040;-77
2023/04/11 10:02:55;;;;;;;10.77;2.40;;;15.40;65.10;;;;;;4940548;29;20554;-77
2023/04/11 10:05:26;;;;;;;7.68;2.05;;;15.50;65.50;;;;;;4918516;29;20039;-77
2023/04/11 10:08:13;;;;;;;7.90;1.98;;;15.70;66.00;;;;;;4921750;29;20071;-78
2023/04/11 10:10:42;;;;;;;6.28;1.85;;;15.80;65.20;;;;;;4930104;29;20047;-78
2023/04/11 10:13:36;;;;;;;10.23;1.95;;;15.80;64.00;;;;;;4959210;29;20028;-77
2023/04/11 10:16:14;;;;;;;8.48;1.33;;;15.60;64.10;;;;;;4940183;29;20035;-77
2023/04/11 10:18:52;;;;;;;9.55;1.92;;;15.40;63.80;;;;;;4929153;29;20043;-77
2023/04/11 10:21:33;;;;;;;8.80;2.30;;;15.30;64.00;;;;;;4938278;29;20031;-77
2023/04/11 10:24:16;;;;;;;8.68;1.67;;;15.30;65.10;;;;;;4932980;29;20028;-78
2023/04/11 10:26:51;;;;;;;6.35;1.75;;;15.30;64.60;;;;;;4920921;29;20578;-77
2023/04/11 10:29:32;;;;;;;12.27;1.73;;;15.20;63.40;;;;;;4918764;29;20111;-77
2023/04/11 10:32:09;;;;;;;8.88;2.08;;;15.20;62.90;;;;;;4922135;29;20127;-78
2023/04/11 10:34:37;;;;;;;8.32;1.42;;;15.20;63.50;;;;;;4939306;29;20115;-78
2023/04/11 10:37:07;;;;;;;9.30;1.48;;;15.20;63.40;;;;;;4919793;29;20039;-78
2023/04/11 10:39:54;;;;;;;5.63;1.67;;;15.10;62.40;;;;;;4920186;29;20039;-77
2023/04/11 10:42:33;;;;;;;8.30;1.60;;;15.00;62.50;;;;;;4919322;29;20066;-78
2023/04/11 10:45:20;;;;;;;8.60;1.45;;;15.00;62.70;;;;;;4920419;29;20063;-78
2023/04/11 10:47:55;;;;;;;8.55;1.20;;;15.00;62.90;;;;;;4924743;29;20086;-77
2023/04/11 10:50:29;;;;;;;6.88;1.30;;;15.00;62.80;;;;;;4938345;29;20530;-77
2023/04/11 10:52:56;;;;;;;8.27;1.60;;;15.10;63.70;;;;;;4934011;29;20028;-77
2023/04/11 10:55:22;;;;;;;5.40;1.38;;;15.10;63.80;;;;;;4920462;29;20490;-78
2023/04/11 10:58:18;;;;;;;7.10;1.38;;;15.20;63.70;;;;;;4919997;29;20025;-77
2023/04/11 11:01:10;;;;;;;7.68;1.45;;;15.20;63.80;;;;;;4922767;29;20032;-77
2023/04/11 11:03:36;;;;;;;9.25;1.67;;;15.20;63.70;;;;;;4917951;29;20031;-78
2023/04/11 11:06:05;;;;;;;8.38;1.67;;;15.20;63.80;;;;;;4903607;29;20075;-78
2023/04/11 11:08:32;;;;;;;6.22;1.50;;;15.00;64.60;;;;;;4938178;29;20024;-77
2023/04/11 11:11:03;;;;;;;5.97;1.50;;;14.80;65.80;;;;;;4931812;29;20032;-77
2023/04/11 11:13:52;;;;;;;9.60;2.00;;;14.90;66.00;;;;;;4937589;29;20035;-77
2023/04/11 11:16:22;;;;;;;11.40;2.30;;;14.80;66.50;;;;;;4929320;29;20074;-77
2023/04/11 11:18:53;;;;;;;10.40;1.60;;;14.80;66.90;;;;;;4918897;29;20056;-77
2023/04/11 11:21:23;;;;;;;5.30;1.55;;;14.90;66.70;;;;;;4917522;29;20040;-77
2023/04/11 11:24:02;;;;;;;7.65;1.88;;;14.90;67.40;;;;;;4920243;29;20067;-77
2023/04/11 11:26:41;;;;;;;7.87;1.30;;;15.00;67.00;;;;;;4919644;29;20060;-77
2023/04/11 11:29:08;;;;;;;6.35;1.15;;;15.10;66.30;;;;;;4920180;29;20036;-78
2023/04/11 11:31:45;;;;;;;11.85;2.03;;;15.10;66.40;;;;;;4928122;29;20047;-77
2023/04/11 11:34:11;;;;;;;6.15;1.80;;;15.20;66.10;;;;;;4926479;29;20042;-77
2023/04/11 11:36:45;;;;;;;7.43;1.95;;;15.30;65.90;;;;;;4918597;29;20107;-77
2023/04/11 11:39:12;;;;;;;5.50;1.38;;;15.40;65.90;;;;;;4920314;29;20039;-78
2023/04/11 11:41:39;;;;;;;7.15;1.40;;;15.50;66.10;;;;;;4919833;29;20039;-77
2023/04/11 11:44:05;;;;;;;10.40;1.73;;;15.50;65.20;;;;;;4919686;29;20036;-77
2023/04/11 11:46:32;;;;;;;11.05;2.10;;;15.50;65.00;;;;;;4918275;29;20115;-77
2023/04/11 11:49:04;;;;;;;8.27;2.30;;;15.80;64.60;;;;;;4919859;29;20039;-77
2023/04/11 11:51:40;;;;;;;5.22;2.03;;;15.80;64.30;;;;;;4919032;29;20028;-77
2023/04/11 11:54:08;;;;;;;9.35;1.77;;;15.80;63.80;;;;;;4908221;29;20036;-77
2023/04/11 11:56:38;;;;;;;6.40;1.67;;;15.70;63.20;;;;;;4919855;29;20043;-78
2023/04/11 11:59:04;;;;;;;6.63;1.20;;;15.30;63.80;;;;;;4919516;29;20028;-77
2023/04/11 12:01:34;;;;;;;6.38;1.70;;;15.20;65.70;;;;;;4928299;29;20028;-77
2023/04/11 12:04:00;;;;;;;6.72;1.55;;;15.20;67.10;;;;;;4923764;29;20458;-77
2023/04/11 12:06:32;;;;;;;5.82;1.92;;;15.00;68.20;;;;;;4932299;29;20444;-77
2023/04/11 12:09:09;;;;;;;4.60;1.40;;;15.00;68.80;;;;;;4919251;29;20638;-78
2023/04/11 12:11:42;;;;;;;5.80;1.85;;;14.90;69.50;;;;;;4942396;29;20039;-77
2023/04/11 12:14:08;;;;;;;6.93;1.98;;;14.90;70.30;;;;;;4956478;29;20027;-78
2023/04/11 12:16:37;;;;;;;5.03;1.20;;;15.00;70.80;;;;;;4919183;29;20024;-78
2023/04/11 12:19:03;;;;;;;8.00;2.00;;;15.00;69.30;;;;;;4919440;29;20028;-77
2023/04/11 12:21:29;;;;;;;8.98;1.70;;;15.20;69.30;;;;;;4919121;29;20079;-77
2023/04/11 12:23:55;;;;;;;8.13;1.48;;;15.20;68.40;;;;;;4926986;29;20459;-78
2023/04/11 12:26:21;;;;;;;5.57;1.27;;;15.30;68.40;;;;;;4924960;29;20050;-77
2023/04/11 12:28:48;;;;;;;6.97;1.60;;;15.30;66.70;;;;;;4936743;29;20036;-78
2023/04/11 12:31:13;;;;;;;5.30;1.00;;;15.30;66.10;;;;;;4912091;29;20533;-77
2023/04/11 12:33:39;;;;;;;6.43;1.65;;;15.10;66.10;;;;;;4941177;29;20036;-77
2023/04/11 12:36:08;;;;;;;3.78;1.17;;;15.20;66.30;;;;;;4941599;29;20464;-77
2023/04/11 12:38:34;;;;;;;3.95;1.60;;;15.20;66.40;;;;;;4941755;29;20059;-78
2023/04/11 12:41:00;;;;;;;7.50;1.73;;;15.30;66.10;;;;;;4905707;29;20028;-77
2023/04/11 12:43:26;;;;;;;6.72;1.50;;;15.30;66.30;;;;;;4922527;29;20040;-77
2023/04/11 12:45:52;;;;;;;6.05;1.25;;;15.30;65.60;;;;;;4921132;29;20746;-78
2023/04/11 12:48:18;;;;;;;7.25;1.20;;;15.30;66.10;;;;;;4921046;29;20040;-77
2023/04/11 12:50:43;;;;;;;6.28;1.17;;;15.20;64.40;;;;;;4922308;29;20033;-77
2023/04/11 12:53:09;;;;;;;5.13;1.38;;;15.20;63.60;;;;;;4921260;29;20032;-77
2023/04/11 12:55:35;;;;;;;6.63;1.48;;;15.20;63.60;;;;;;4922622;29;20039;-77
2023/04/11 12:58:01;;;;;;;5.63;1.25;;;15.30;63.70;;;;;;4927221;29;20036;-78
2023/04/11 13:00:27;;;;;;;13.02;1.50;;;15.30;63.20;;;;;;4924348;29;20110;-77
2023/04/11 13:02:53;;;;;;;4.80;2.03;;;15.30;62.80;;;;;;4940989;29;20032;-77
2023/04/11 13:05:20;;;;;;;9.95;1.75;;;15.40;62.90;;;;;;4931657;29;20084;-77
2023/04/11 13:07:46;;;;;;;8.07;1.90;;;15.50;62.70;;;;;;4921032;29;20029;-78
2023/04/11 13:10:14;;;;;;;7.50;0.90;;;15.60;63.30;;;;;;4923806;29;20024;-77
2023/04/11 13:12:43;;;;;;;6.50;1.13;;;15.50;62.10;;;;;;4950442;29;20483;-78
2023/04/11 13:15:10;;;;;;;18.90;3.05;;;15.50;62.10;;;;;;4940588;29;20106;-78
2023/04/11 13:17:35;;;;;;;11.00;2.60;;;15.50;62.10;;;;;;4941302;29;20031;-78
2023/04/11 13:20:02;;;;;;;3.92;1.10;;;15.60;62.50;;;;;;4923849;29;20038;-78
2023/04/11 13:22:27;;;;;;;5.80;1.70;;;15.60;62.40;;;;;;4920655;29;20036;-77
2023/04/11 13:24:53;;;;;;;6.38;1.73;;;15.80;61.70;;;;;;4918896;29;20028;-78
2023/04/11 13:27:19;;;;;;;7.43;1.85;;;15.70;62.10;;;;;;4922279;29;20580;-77
2023/04/11 13:29:44;;;;;;;8.65;1.73;;;15.80;62.20;;;;;;4920440;29;20587;-78
2023/04/11 13:32:10;;;;;;;4.47;1.45;;;15.80;61.70;;;;;;4920416;29;20120;-77
2023/04/11 13:34:36;;;;;;;6.57;1.17;;;15.60;61.70;;;;;;4938559;29;20030;-78
2023/04/11 13:37:01;;;;;;;2.80;1.58;;;15.40;62.50;;;;;;4938035;29;20031;-78
2023/04/11 13:39:27;;;;;;;8.13;1.33;;;15.30;63.00;;;;;;4931330;29;20028;-77
2023/04/11 13:41:53;;;;;;;3.95;1.05;;;15.30;63.30;;;;;;4940042;29;20023;-78
2023/04/11 13:44:18;;;;;;;8.52;1.77;;;15.10;64.40;;;;;;4926504;29;20040;-77
2023/04/11 13:46:44;;;;;;;4.95;1.30;;;15.00;66.40;;;;;;4921521;29;20027;-78
2023/04/11 13:49:10;;;;;;;6.65;1.17;;;14.90;67.10;;;;;;4920540;29;20040;-77
2023/04/11 13:51:35;;;;;;;6.22;1.35;;;14.70;67.10;;;;;;4921558;29;20048;-77
2023/04/11 13:54:01;;;;;;;3.85;1.08;;;14.50;68.00;;;;;;4919431;29;20071;-77
2023/04/11 13:56:27;;;;;;;9.65;1.65;;;14.50;67.80;;;;;;4921195;29;20104;-77
2023/04/11 13:58:52;;;;;;;8.18;1.35;;;14.70;67.90;;;;;;4921146;29;20036;-77
2023/04/11 14:01:21;;;;;;;4.18;1.25;;;14.80;67.00;;;;;;4928152;29;20136;-77
2023/04/11 14:03:48;;;;;;;4.25;1.35;;;14.90;66.50;;;;;;4934308;29;20036;-78
2023/04/11 14:06:13;;;;;;;5.05;1.95;;;15.00;66.70;;;;;;4921394;29;20039;-77
2023/04/11 14:08:39;;;;;;;3.10;1.17;;;15.10;66.20;;;;;;4929703;29;20036;-77
2023/04/11 14:11:05;;;;;;;7.55;1.15;;;15.10;64.50;;;;;;4939778;29;20028;-77
2023/04/11 14:13:31;;;;;;;5.47;1.05;;;15.20;64.60;;;;;;4921538;29;20043;-78
2023/04/11 14:15:56;;;;;;;2.42;0.85;;;15.20;63.80;;;;;;4919295;29;20088;-77
2023/04/11 14:18:22;;;;;;;5.15;1.33;;;15.20;63.00;;;;;;4920629;29;20035;-78
2023/04/11 14:20:48;;;;;;;7.90;1.10;;;15.10;62.80;;;;;;4919859;29;20028;-77
2023/04/11 14:23:15;;;;;;;3.65;1.25;;;15.10;62.90;;;;;;4920837;29;20091;-77
2023/04/11 14:25:41;;;;;;;3.67;1.35;;;15.00;62.80;;;;;;4922451;29;20034;-78
2023/04/11 14:28:07;;;;;;;7.28;1.35;;;15.00;63.60;;;;;;4925842;29;20043;-78
2023/04/11 14:30:33;;;;;;;3.78;1.20;;;15.00;63.00;;;;;;4921467;29;20095;-77
2023/04/11 14:32:59;;;;;;;2.50;0.90;;;15.00;63.00;;;;;;4933127;29;20040;-77
2023/04/11 14:35:25;;;;;;;2.35;0.88;;;14.90;63.50;;;;;;4938874;29;20178;-77
2023/04/11 14:37:50;;;;;;;4.60;1.38;;;14.90;62.90;;;;;;4939997;29;20035;-78
2023/04/11 14:40:16;;;;;;;2.03;0.90;;;14.90;62.30;;;;;;4935687;29;20676;-78
2023/04/11 14:42:42;;;;;;;3.85;1.00;;;14.90;62.40;;;;;;4919385;29;20043;-77
2023/04/11 14:45:07;;;;;;;4.03;1.30;;;15.00;62.70;;;;;;4920790;29;20032;-77
2023/04/11 14:47:33;;;;;;;2.92;1.00;;;15.00;61.90;;;;;;4920409;29;20024;-77
2023/04/11 14:49:59;;;;;;;5.18;1.15;;;14.90;62.00;;;;;;4907565;29;20028;-77
2023/04/11 14:52:25;;;;;;;6.65;1.15;;;15.00;60.80;;;;;;4920243;29;20036;-78
2023/04/11 14:54:50;;;;;;;4.47;1.20;;;14.90;60.80;;;;;;4920253;29;20025;-77
2023/04/11 14:57:16;;;;;;;2.85;0.75;;;14.80;60.70;;;;;;4910747;29;20103;-78
2023/04/11 14:59:45;;;;;;;6.78;1.25;;;14.80;60.90;;;;;;4920349;29;20032;-78
2023/04/11 15:02:11;;;;;;;5.45;1.08;;;14.80;60.30;;;;;;4933980;29;20036;-78
2023/04/11 15:04:37;;;;;;;2.63;1.25;;;14.80;61.00;;;;;;4923696;29;20024;-77
2023/04/11 15:07:03;;;;;;;3.75;1.17;;;14.80;60.70;;;;;;4924505;29;20031;-77
2023/04/11 15:09:29;;;;;;;3.78;1.13;;;14.70;60.70;;;;;;4931807;29;20028;-78
2023/04/11 15:11:55;;;;;;;4.30;0.98;;;14.70;60.70;;;;;;4948731;29;20041;-77
2023/04/11 15:14:27;;;;;;;5.28;0.95;;;14.70;60.90;;;;;;4940895;29;20027;-77
2023/04/11 15:16:54;;;;;;;3.85;1.10;;;14.70;60.90;;;;;;4939763;29;20046;-77
2023/04/11 15:19:20;;;;;;;5.60;1.30;;;14.60;60.30;;;;;;4919908;29;20034;-77
2023/04/11 15:21:45;;;;;;;5.78;1.25;;;14.60;60.50;;;;;;4920114;29;20123;-77
2023/04/11 15:24:11;;;;;;;4.28;0.82;;;14.60;61.00;;;;;;4918005;29;20064;-77
2023/04/11 15:26:36;;;;;;;6.22;1.27;;;14.60;61.10;;;;;;4919647;29;20111;-77
2023/04/11 15:29:02;;;;;;;5.60;1.30;;;14.70;61.30;;;;;;4919915;29;20032;-77
2023/04/11 15:31:28;;;;;;;5.15;0.88;;;14.60;61.30;;;;;;4925307;29;20076;-77
2023/04/11 15:34:00;;;;;;;1.83;0.98;;;14.40;60.80;;;;;;4938255;29;20016;-81
2023/04/11 15:36:27;;;;;;;3.08;0.85;;;14.40;60.70;;;;;;4933300;29;20119;-85
2023/04/11 15:38:53;;;;;;;2.63;1.10;;;14.40;60.90;;;;;;4937671;29;20024;-85
2023/04/11 15:41:18;;;;;;;7.13;1.20;;;14.30;61.00;;;;;;4936125;29;20038;-85
2023/04/11 15:43:44;;;;;;;5.88;1.40;;;14.30;61.60;;;;;;4935946;29;20023;-85
2023/04/11 15:46:10;;;;;;;4.88;1.58;;;14.30;61.50;;;;;;4938548;29;20036;-85
2023/04/11 15:48:35;;;;;;;2.25;1.00;;;14.40;61.90;;;;;;4919256;29;20406;-85
2023/04/11 15:51:08;;;;;;;1.58;0.90;;;14.30;62.00;;;;;;4938251;29;20040;-78
2023/04/11 15:53:34;;;;;;;3.20;1.10;;;14.30;61.90;;;;;;4921596;29;20027;-82
2023/04/11 15:56:03;;;;;;;2.50;1.00;;;14.30;62.30;;;;;;4921279;29;20023;-85
2023/04/11 15:58:31;;;;;;;3.67;0.80;;;14.30;61.80;;;;;;4939326;29;20102;-82
2023/04/11 16:01:00;;;;;;;1.25;0.80;;;14.20;61.50;;;;;;4942402;29;20525;-85
2023/04/11 16:03:32;;;;;;;2.83;1.20;;;14.30;61.50;;;;;;4930885;29;20027;-91
2023/04/11 16:05:58;;;;;;;7.07;1.90;;;14.30;61.50;;;;;;4943615;29;20035;-88
2023/04/11 16:08:26;;;;;;;3.55;1.30;;;14.20;61.90;;;;;;4950653;29;20027;-91
2023/04/11 16:10:52;;;;;;;2.88;1.08;;;14.20;61.90;;;;;;4931443;29;20059;-89
2023/04/11 16:13:17;;;;;;;7.65;1.08;;;14.20;62.10;;;;;;4945780;29;20054;-86
2023/04/11 16:15:43;;;;;;;4.13;1.30;;;14.30;62.50;;;;;;4928864;29;20078;-86
2023/04/11 16:18:09;;;;;;;5.88;1.05;;;14.30;62.10;;;;;;4929009;29;20035;-83
2023/04/11 16:20:34;;;;;;;3.88;1.35;;;14.30;62.80;;;;;;4953133;29;20038;-86
2023/04/11 16:23:00;;;;;;;4.63;1.30;;;14.30;62.50;;;;;;4937627;29;20060;-86
2023/04/11 16:25:26;;;;;;;4.82;1.25;;;14.30;62.70;;;;;;4938587;29;20051;-84
2023/04/11 16:27:51;;;;;;;2.83;1.27;;;14.30;63.10;;;;;;4930635;29;20479;-86
2023/04/11 16:30:17;;;;;;;8.15;1.95;;;14.30;63.00;;;;;;4905143;29;20039;-85
2023/04/11 16:32:43;;;;;;;7.55;1.80;;;14.20;63.90;;;;;;4931408;29;20089;-86
2023/04/11 16:35:09;;;;;;;6.53;1.50;;;14.20;64.60;;;;;;4937611;29;20027;-89
2023/04/11 16:37:35;;;;;;;4.40;1.40;;;14.30;64.70;;;;;;4915623;29;20117;-87
2023/04/11 16:40:00;;;;;;;3.55;1.10;;;14.30;64.90;;;;;;4910184;29;20035;-85
2023/04/11 16:42:26;;;;;;;9.23;1.23;;;14.20;65.40;;;;;;4920230;29;20099;-85
2023/04/11 16:44:52;;;;;;;5.93;2.15;;;14.10;65.90;;;;;;4933934;29;20150;-85
2023/04/11 16:47:19;;;;;;;5.55;1.52;;;14.00;66.40;;;;;;4928100;29;20039;-85
2023/04/11 16:49:44;;;;;;;8.98;1.33;;;14.10;66.80;;;;;;4920822;29;20043;-85
2023/04/11 16:52:10;;;;;;;15.52;1.98;;;14.20;67.20;;;;;;4918869;29;20036;-86
2023/04/11 16:54:36;;;;;;;3.67;1.23;;;14.10;68.50;;;;;;4937356;29;20027;-85
2023/04/11 16:57:01;;;;;;;6.47;1.10;;;14.00;68.80;;;;;;4936601;29;20032;-86
2023/04/11 16:59:27;;;;;;;10.65;1.88;;;13.90;69.40;;;;;;4918977;29;20028;-86
2023/04/11 17:01:53;;;;;;;4.63;1.67;;;13.90;69.60;;;;;;4914841;29;20452;-83
2023/04/11 17:04:18;;;;;;;5.05;2.10;;;13.80;70.10;;;;;;4924734;29;20068;-78
2023/04/11 17:06:45;;;;;;;7.40;1.52;;;13.80;70.40;;;;;;4929106;29;20031;-78
2023/04/11 17:09:10;;;;;;;4.95;1.67;;;13.80;70.20;;;;;;4929021;29;20036;-78
2023/04/11 17:11:38;;;;;;;4.22;1.85;;;13.70;70.50;;;;;;4935362;29;20062;-78
2023/04/11 17:14:04;;;;;;;3.92;1.52;;;13.80;70.80;;;;;;4939859;29;20032;-78
2023/04/11 17:16:32;;;;;;;4.57;1.52;;;13.80;70.90;;;;;;4937937;29;20027;-78